sensor_id;sensor_type;location;lat;lon;timestamp;P1;durP1;ratioP1;P2;durP2;ratioP2
28192;SDS011;15473;50.840;3.396;2022-10-13T00:02:11;8.45;;;4.87;;
28192;SDS011;15473;50.840;3.396;2022-10-13T00:04:48;8.83;;;4.60;;
28192;SDS011;15473;50.840;3.396;2022-10-13T00:07:24;10.18;;;5.47;;
28192;SDS011;15473;50.840;3.396;2022-10-13T00:10:01;10.40;;;5.10;;
28192;SDS011;15473;50.840;3.396;2022-10-13T00:12:33;6.37;;;3.85;;
28192;SDS011;15473;50.840;3.396;2022-10-13T00:15:10;7.60;;;4.87;;
28192;SDS011;15473;50.840;3.396;2022-10-13T00:17:48;9.63;;;4.92;;
28192;SDS011;15473;50.840;3.396;2022-10-13T00:20:18;6.87;;;4.62;;
28192;SDS011;15473;50.840;3.396;2022-10-13T00:22:55;9.80;;;4.37;;
28192;SDS011;15473;50.840;3.396;2022-10-13T00:25:25;10.48;;;5.12;;
28192;SDS011;15473;50.840;3.396;2022-10-13T00:28:01;9.60;;;5.12;;
28192;SDS011;15473;50.840;3.396;2022-10-13T00:30:38;9.05;;;5.03;;
28192;SDS011;15473;50.840;3.396;2022-10-13T00:33:08;9.23;;;4.75;;
28192;SDS011;15473;50.840;3.396;2022-10-13T00:35:46;8.80;;;4.75;;
28192;SDS011;15473;50.840;3.396;2022-10-13T00:38:23;11.95;;;5.10;;
28192;SDS011;15473;50.840;3.396;2022-10-13T00:41:00;10.75;;;5.08;;
28192;SDS011;15473;50.840;3.396;2022-10-13T00:43:51;11.38;;;5.08;;
28192;SDS011;15473;50.840;3.396;2022-10-13T00:46:38;10.40;;;5.20;;
28192;SDS011;15473;50.840;3.396;2022-10-13T00:49:15;11.88;;;5.17;;
28192;SDS011;15473;50.840;3.396;2022-10-13T00:51:51;8.70;;;5.17;;
28192;SDS011;15473;50.840;3.396;2022-10-13T00:54:28;11.73;;;5.65;;
28192;SDS011;15473;50.840;3.396;2022-10-13T00:57:05;7.33;;;5.20;;
28192;SDS011;15473;50.840;3.396;2022-10-13T00:59:43;10.48;;;5.33;;
28192;SDS011;15473;50.840;3.396;2022-10-13T01:02:13;11.08;;;5.47;;
28192;SDS011;15473;50.840;3.396;2022-10-13T01:04:47;9.13;;;4.70;;
28192;SDS011;15473;50.840;3.396;2022-10-13T01:07:21;9.98;;;4.67;;
28192;SDS011;15473;50.840;3.396;2022-10-13T01:09:58;9.20;;;4.97;;
28192;SDS011;15473;50.840;3.396;2022-10-13T01:12:42;7.85;;;4.65;;
28192;SDS011;15473;50.840;3.396;2022-10-13T01:15:29;12.13;;;5.15;;
28192;SDS011;15473;50.840;3.396;2022-10-13T01:18:16;8.20;;;5.20;;
28192;SDS011;15473;50.840;3.396;2022-10-13T01:24:18;8.33;;;4.75;;
28192;SDS011;15473;50.840;3.396;2022-10-13T01:33:42;14.15;;;6.00;;
28192;SDS011;15473;50.840;3.396;2022-10-13T01:36:25;11.30;;;5.40;;
28192;SDS011;15473;50.840;3.396;2022-10-13T01:39:06;12.47;;;6.37;;
28192;SDS011;15473;50.840;3.396;2022-10-13T01:41:50;11.40;;;5.87;;
28192;SDS011;15473;50.840;3.396;2022-10-13T01:44:31;18.20;;;6.92;;
28192;SDS011;15473;50.840;3.396;2022-10-13T01:47:10;16.77;;;6.67;;
28192;SDS011;15473;50.840;3.396;2022-10-13T01:50:12;10.78;;;5.97;;
28192;SDS011;15473;50.840;3.396;2022-10-13T01:52:45;10.35;;;6.00;;
28192;SDS011;15473;50.840;3.396;2022-10-13T01:55:16;8.20;;;5.87;;
28192;SDS011;15473;50.840;3.396;2022-10-13T01:57:52;17.73;;;7.17;;
28192;SDS011;15473;50.840;3.396;2022-10-13T02:00:38;12.43;;;6.40;;
28192;SDS011;15473;50.840;3.396;2022-10-13T02:03:04;10.60;;;6.45;;
28192;SDS011;15473;50.840;3.396;2022-10-13T02:08:24;15.83;;;6.20;;
28192;SDS011;15473;50.840;3.396;2022-10-13T02:10:55;10.82;;;5.80;;
28192;SDS011;15473;50.840;3.396;2022-10-13T02:13:57;15.15;;;7.22;;
28192;SDS011;15473;50.840;3.396;2022-10-13T02:16:40;21.05;;;10.13;;
28192;SDS011;15473;50.840;3.396;2022-10-13T02:19:28;22.17;;;10.03;;
28192;SDS011;15473;50.840;3.396;2022-10-13T02:22:02;19.80;;;9.55;;
28192;SDS011;15473;50.840;3.396;2022-10-13T02:24:34;12.10;;;7.03;;
28192;SDS011;15473;50.840;3.396;2022-10-13T02:27:11;10.40;;;6.83;;
28192;SDS011;15473;50.840;3.396;2022-10-13T02:29:49;9.45;;;6.28;;
28192;SDS011;15473;50.840;3.396;2022-10-13T02:32:21;14.87;;;8.33;;
28192;SDS011;15473;50.840;3.396;2022-10-13T02:34:58;18.30;;;8.08;;
28192;SDS011;15473;50.840;3.396;2022-10-13T02:37:35;17.45;;;7.78;;
28192;SDS011;15473;50.840;3.396;2022-10-13T02:40:12;18.37;;;7.25;;
28192;SDS011;15473;50.840;3.396;2022-10-13T02:42:42;17.20;;;7.22;;
28192;SDS011;15473;50.840;3.396;2022-10-13T02:45:19;10.18;;;6.25;;
28192;SDS011;15473;50.840;3.396;2022-10-13T02:47:55;15.43;;;7.25;;
28192;SDS011;15473;50.840;3.396;2022-10-13T02:50:27;13.20;;;7.03;;
28192;SDS011;15473;50.840;3.396;2022-10-13T02:53:03;18.60;;;7.08;;
28192;SDS011;15473;50.840;3.396;2022-10-13T02:55:39;15.55;;;6.97;;
28192;SDS011;15473;50.840;3.396;2022-10-13T02:58:17;15.25;;;6.90;;
28192;SDS011;15473;50.840;3.396;2022-10-13T03:00:47;11.25;;;6.87;;
28192;SDS011;15473;50.840;3.396;2022-10-13T03:03:17;9.30;;;6.25;;
28192;SDS011;15473;50.840;3.396;2022-10-13T03:05:53;11.68;;;6.28;;
28192;SDS011;15473;50.840;3.396;2022-10-13T03:08:31;12.05;;;6.33;;
28192;SDS011;15473;50.840;3.396;2022-10-13T03:11:04;23.90;;;10.40;;
28192;SDS011;15473;50.840;3.396;2022-10-13T03:13:41;33.15;;;11.68;;
28192;SDS011;15473;50.840;3.396;2022-10-13T03:16:11;18.48;;;9.28;;
28192;SDS011;15473;50.840;3.396;2022-10-13T03:18:53;11.45;;;6.90;;
28192;SDS011;15473;50.840;3.396;2022-10-13T03:21:30;13.62;;;7.65;;
28192;SDS011;15473;50.840;3.396;2022-10-13T03:24:00;10.70;;;6.53;;
28192;SDS011;15473;50.840;3.396;2022-10-13T03:26:39;9.70;;;6.53;;
28192;SDS011;15473;50.840;3.396;2022-10-13T03:29:16;13.98;;;7.17;;
28192;SDS011;15473;50.840;3.396;2022-10-13T03:31:53;9.40;;;5.67;;
28192;SDS011;15473;50.840;3.396;2022-10-13T03:34:23;16.70;;;6.25;;
28192;SDS011;15473;50.840;3.396;2022-10-13T03:36:59;12.15;;;6.28;;
28192;SDS011;15473;50.840;3.396;2022-10-13T03:39:36;9.83;;;5.70;;
28192;SDS011;15473;50.840;3.396;2022-10-13T03:42:12;12.63;;;6.20;;
28192;SDS011;15473;50.840;3.396;2022-10-13T03:44:49;13.03;;;6.42;;
28192;SDS011;15473;50.840;3.396;2022-10-13T03:47:34;10.18;;;6.50;;
28192;SDS011;15473;50.840;3.396;2022-10-13T03:50:11;14.10;;;6.42;;
28192;SDS011;15473;50.840;3.396;2022-10-13T03:52:48;15.25;;;6.67;;
28192;SDS011;15473;50.840;3.396;2022-10-13T03:55:24;9.93;;;6.37;;
28192;SDS011;15473;50.840;3.396;2022-10-13T03:58:01;12.15;;;6.47;;
28192;SDS011;15473;50.840;3.396;2022-10-13T04:03:26;18.77;;;6.10;;
28192;SDS011;15473;50.840;3.396;2022-10-13T04:06:03;11.45;;;6.12;;
28192;SDS011;15473;50.840;3.396;2022-10-13T04:08:40;20.75;;;7.28;;
28192;SDS011;15473;50.840;3.396;2022-10-13T04:11:17;12.80;;;6.60;;
28192;SDS011;15473;50.840;3.396;2022-10-13T04:13:56;14.15;;;8.23;;
28192;SDS011;15473;50.840;3.396;2022-10-13T04:16:33;21.65;;;7.28;;
28192;SDS011;15473;50.840;3.396;2022-10-13T04:19:16;15.88;;;7.65;;
28192;SDS011;15473;50.840;3.396;2022-10-13T04:21:59;20.65;;;10.13;;
28192;SDS011;15473;50.840;3.396;2022-10-13T04:24:29;19.67;;;10.10;;
28192;SDS011;15473;50.840;3.396;2022-10-13T04:26:59;14.38;;;9.63;;
28192;SDS011;15473;50.840;3.396;2022-10-13T04:29:35;16.27;;;8.55;;
28192;SDS011;15473;50.840;3.396;2022-10-13T04:32:13;15.98;;;7.85;;
28192;SDS011;15473;50.840;3.396;2022-10-13T04:34:44;18.37;;;9.93;;
28192;SDS011;15473;50.840;3.396;2022-10-13T04:37:14;14.33;;;8.40;;
28192;SDS011;15473;50.840;3.396;2022-10-13T04:39:51;18.17;;;7.62;;
28192;SDS011;15473;50.840;3.396;2022-10-13T04:42:28;14.30;;;7.58;;
28192;SDS011;15473;50.840;3.396;2022-10-13T04:45:04;15.78;;;8.98;;
28192;SDS011;15473;50.840;3.396;2022-10-13T04:47:41;14.00;;;7.60;;
28192;SDS011;15473;50.840;3.396;2022-10-13T04:50:21;10.88;;;7.50;;
28192;SDS011;15473;50.840;3.396;2022-10-13T04:52:53;9.80;;;6.67;;
28192;SDS011;15473;50.840;3.396;2022-10-13T04:55:30;17.50;;;6.65;;
28192;SDS011;15473;50.840;3.396;2022-10-13T04:58:08;10.72;;;6.67;;
28192;SDS011;15473;50.840;3.396;2022-10-13T05:00:45;15.65;;;7.75;;
28192;SDS011;15473;50.840;3.396;2022-10-13T05:03:26;15.23;;;6.83;;
28192;SDS011;15473;50.840;3.396;2022-10-13T05:06:03;12.20;;;7.47;;
28192;SDS011;15473;50.840;3.396;2022-10-13T05:08:40;12.05;;;6.92;;
28192;SDS011;15473;50.840;3.396;2022-10-13T05:11:17;12.40;;;7.53;;
28192;SDS011;15473;50.840;3.396;2022-10-13T05:13:49;18.52;;;7.53;;
28192;SDS011;15473;50.840;3.396;2022-10-13T05:16:19;14.15;;;7.40;;
28192;SDS011;15473;50.840;3.396;2022-10-13T05:18:56;13.00;;;7.70;;
28192;SDS011;15473;50.840;3.396;2022-10-13T05:21:27;18.05;;;8.98;;
28192;SDS011;15473;50.840;3.396;2022-10-13T05:24:04;18.42;;;7.72;;
28192;SDS011;15473;50.840;3.396;2022-10-13T05:26:42;17.80;;;9.18;;
28192;SDS011;15473;50.840;3.396;2022-10-13T05:29:18;15.85;;;8.10;;
28192;SDS011;15473;50.840;3.396;2022-10-13T05:31:54;29.32;;;12.33;;
28192;SDS011;15473;50.840;3.396;2022-10-13T05:34:31;33.60;;;15.20;;
28192;SDS011;15473;50.840;3.396;2022-10-13T05:37:02;31.82;;;12.93;;
28192;SDS011;15473;50.840;3.396;2022-10-13T05:39:34;29.80;;;13.95;;
28192;SDS011;15473;50.840;3.396;2022-10-13T05:42:10;14.93;;;8.90;;
28192;SDS011;15473;50.840;3.396;2022-10-13T05:44:47;31.48;;;17.80;;
28192;SDS011;15473;50.840;3.396;2022-10-13T05:47:17;49.35;;;23.20;;
28192;SDS011;15473;50.840;3.396;2022-10-13T05:50:01;22.35;;;9.80;;
28192;SDS011;15473;50.840;3.396;2022-10-13T05:52:38;21.48;;;9.80;;
28192;SDS011;15473;50.840;3.396;2022-10-13T05:55:16;18.42;;;9.80;;
28192;SDS011;15473;50.840;3.396;2022-10-13T05:57:53;14.63;;;8.35;;
28192;SDS011;15473;50.840;3.396;2022-10-13T06:00:27;21.52;;;10.00;;
28192;SDS011;15473;50.840;3.396;2022-10-13T06:03:06;29.45;;;14.03;;
28192;SDS011;15473;50.840;3.396;2022-10-13T06:05:44;25.70;;;11.50;;
28192;SDS011;15473;50.840;3.396;2022-10-13T06:08:20;18.90;;;10.32;;
28192;SDS011;15473;50.840;3.396;2022-10-13T06:10:57;26.45;;;13.62;;
28192;SDS011;15473;50.840;3.396;2022-10-13T06:13:27;26.23;;;12.23;;
28192;SDS011;15473;50.840;3.396;2022-10-13T06:15:59;26.33;;;13.93;;
28192;SDS011;15473;50.840;3.396;2022-10-13T06:18:35;24.87;;;13.32;;
28192;SDS011;15473;50.840;3.396;2022-10-13T06:21:18;20.60;;;10.80;;
28192;SDS011;15473;50.840;3.396;2022-10-13T06:23:55;31.10;;;13.28;;
28192;SDS011;15473;50.840;3.396;2022-10-13T06:26:25;29.30;;;11.73;;
28192;SDS011;15473;50.840;3.396;2022-10-13T06:29:02;20.37;;;9.85;;
28192;SDS011;15473;50.840;3.396;2022-10-13T06:31:38;23.27;;;11.95;;
28192;SDS011;15473;50.840;3.396;2022-10-13T06:34:14;31.57;;;13.83;;
28192;SDS011;15473;50.840;3.396;2022-10-13T06:36:50;28.57;;;16.17;;
28192;SDS011;15473;50.840;3.396;2022-10-13T06:39:27;33.18;;;16.32;;
28192;SDS011;15473;50.840;3.396;2022-10-13T06:42:03;23.50;;;12.25;;
28192;SDS011;15473;50.840;3.396;2022-10-13T06:44:39;29.92;;;13.35;;
28192;SDS011;15473;50.840;3.396;2022-10-13T06:47:11;27.40;;;12.47;;
28192;SDS011;15473;50.840;3.396;2022-10-13T06:49:54;24.90;;;12.98;;
28192;SDS011;15473;50.840;3.396;2022-10-13T06:52:37;22.00;;;12.45;;
28192;SDS011;15473;50.840;3.396;2022-10-13T06:55:09;29.02;;;12.00;;
28192;SDS011;15473;50.840;3.396;2022-10-13T06:57:46;23.12;;;11.63;;
28192;SDS011;15473;50.840;3.396;2022-10-13T07:00:20;32.48;;;13.43;;
28192;SDS011;15473;50.840;3.396;2022-10-13T07:02:56;26.57;;;12.68;;
28192;SDS011;15473;50.840;3.396;2022-10-13T07:05:30;23.30;;;11.88;;
28192;SDS011;15473;50.840;3.396;2022-10-13T07:08:00;22.90;;;12.05;;
28192;SDS011;15473;50.840;3.396;2022-10-13T07:10:37;29.15;;;12.10;;
28192;SDS011;15473;50.840;3.396;2022-10-13T07:13:14;32.20;;;14.38;;
28192;SDS011;15473;50.840;3.396;2022-10-13T07:15:44;22.90;;;12.30;;
28192;SDS011;15473;50.840;3.396;2022-10-13T07:18:22;26.93;;;12.58;;
28192;SDS011;15473;50.840;3.396;2022-10-13T07:21:05;23.77;;;12.00;;
28192;SDS011;15473;50.840;3.396;2022-10-13T07:23:41;29.98;;;12.35;;
28192;SDS011;15473;50.840;3.396;2022-10-13T07:26:18;24.90;;;12.68;;
28192;SDS011;15473;50.840;3.396;2022-10-13T07:28:55;35.30;;;12.98;;
28192;SDS011;15473;50.840;3.396;2022-10-13T07:31:31;52.95;;;21.37;;
28192;SDS011;15473;50.840;3.396;2022-10-13T07:34:07;53.87;;;21.42;;
28192;SDS011;15473;50.840;3.396;2022-10-13T07:36:38;80.03;;;35.25;;
28192;SDS011;15473;50.840;3.396;2022-10-13T07:39:15;34.98;;;15.65;;
28192;SDS011;15473;50.840;3.396;2022-10-13T07:41:51;23.85;;;12.53;;
28192;SDS011;15473;50.840;3.396;2022-10-13T07:44:34;20.55;;;11.38;;
28192;SDS011;15473;50.840;3.396;2022-10-13T07:47:10;26.10;;;15.10;;
28192;SDS011;15473;50.840;3.396;2022-10-13T07:49:47;29.50;;;14.70;;
28192;SDS011;15473;50.840;3.396;2022-10-13T07:52:17;27.98;;;14.35;;
28192;SDS011;15473;50.840;3.396;2022-10-13T07:54:54;25.68;;;14.60;;
28192;SDS011;15473;50.840;3.396;2022-10-13T07:57:27;37.05;;;17.50;;
28192;SDS011;15473;50.840;3.396;2022-10-13T08:00:04;39.55;;;17.30;;
